Time;durP1;ratioP1;P1;durP2;ratioP2;P2;SDS_P1;SDS_P2;PMS_P1;PMS_P2;Temp;Humidity;BMP_temperature;BMP_pressure;BME280_temperature;BME280_humidity;BME280_pressure;Samples;Min_cycle;Max_cycle;Signal;HPM_P1;HPM_P2
2022/11/29 00:00:51;;;;;;;84.07;19.98;;;9.10;99.90;;;;;;4982591;28;20042;-87
2022/11/29 00:03:16;;;;;;;187.38;38.13;;;9.00;99.90;;;;;;4982256;28;20511;-86
2022/11/29 00:05:42;;;;;;;132.98;35.53;;;9.10;99.90;;;;;;4969961;28;20046;-87
2022/11/29 00:08:08;;;;;;;145.85;34.80;;;9.10;99.90;;;;;;4969003;28;20094;-87
2022/11/29 00:10:37;;;;;;;119.85;34.03;;;9.10;99.90;;;;;;4967212;28;20053;-87
2022/11/29 00:13:03;;;;;;;86.18;19.38;;;9.10;99.90;;;;;;4961346;28;20111;-87
2022/11/29 00:15:29;;;;;;;75.32;18.40;;;9.00;99.90;;;;;;4983267;28;20098;-87
2022/11/29 00:17:54;;;;;;;165.80;36.83;;;9.00;99.90;;;;;;4953876;28;20081;-86
2022/11/29 00:20:21;;;;;;;101.13;21.92;;;9.10;99.90;;;;;;4973423;28;20046;-87
2022/11/29 00:22:47;;;;;;;122.22;32.47;;;9.00;99.90;;;;;;4965749;28;20043;-86
2022/11/29 00:25:12;;;;;;;91.50;20.80;;;9.10;99.90;;;;;;4970805;28;20061;-87
2022/11/29 00:27:38;;;;;;;148.80;35.25;;;9.00;99.90;;;;;;4963000;28;20069;-87
2022/11/29 00:30:04;;;;;;;127.00;33.17;;;9.00;99.90;;;;;;4968697;28;20416;-86
2022/11/29 00:32:30;;;;;;;134.65;33.20;;;9.10;99.90;;;;;;4985969;28;20067;-87
2022/11/29 00:34:59;;;;;;;88.55;18.30;;;9.00;99.90;;;;;;4955768;28;20038;-87
2022/11/29 00:37:24;;;;;;;113.68;33.25;;;9.00;99.90;;;;;;4989886;28;20039;-87
2022/11/29 00:39:50;;;;;;;86.22;19.50;;;9.10;99.90;;;;;;4996249;28;20034;-87
2022/11/29 00:42:15;;;;;;;153.07;34.47;;;9.00;99.90;;;;;;4964235;28;20031;-87
2022/11/29 00:44:41;;;;;;;176.52;35.85;;;9.00;99.90;;;;;;4996629;28;20042;-87
2022/11/29 00:47:06;;;;;;;98.90;20.63;;;9.10;99.90;;;;;;4981164;28;20039;-88
2022/11/29 00:49:32;;;;;;;99.38;21.20;;;9.00;99.90;;;;;;4977298;28;20132;-88
2022/11/29 00:51:58;;;;;;;148.50;36.15;;;9.00;99.90;;;;;;4965549;28;20035;-88
2022/11/29 00:54:24;;;;;;;164.40;37.35;;;9.10;99.90;;;;;;4965760;28;20046;-87
2022/11/29 00:56:50;;;;;;;148.05;35.08;;;9.10;99.90;;;;;;4962526;28;20038;-87
2022/11/29 00:59:15;;;;;;;89.90;20.25;;;9.10;99.90;;;;;;4951648;28;20050;-88
2022/11/29 01:01:41;;;;;;;173.90;38.05;;;9.00;99.90;;;;;;4963550;28;20053;-87
2022/11/29 01:04:06;;;;;;;84.72;17.63;;;9.10;99.90;;;;;;4975237;28;20043;-88
2022/11/29 01:06:32;;;;;;;168.02;35.97;;;9.00;99.90;;;;;;4958742;28;20127;-88
2022/11/29 01:08:58;;;;;;;97.65;19.48;;;9.10;99.90;;;;;;4974415;28;20031;-87
2022/11/29 01:11:25;;;;;;;165.80;37.08;;;9.00;99.90;;;;;;4974183;28;20117;-87
2022/11/29 01:13:54;;;;;;;244.57;40.47;;;9.10;99.90;;;;;;4974875;28;20082;-87
2022/11/29 01:16:21;;;;;;;173.68;38.30;;;9.10;99.90;;;;;;4957499;28;20049;-88
2022/11/29 01:18:46;;;;;;;214.52;40.55;;;9.10;99.90;;;;;;4974687;28;20502;-88
2022/11/29 01:21:15;;;;;;;271.08;43.25;;;9.20;99.90;;;;;;4956944;28;20047;-89
2022/11/29 01:23:43;;;;;;;103.65;21.42;;;9.10;99.90;;;;;;4957807;28;20054;-89
2022/11/29 01:26:14;;;;;;;227.13;44.33;;;9.10;99.90;;;;;;4973402;28;20525;-85
2022/11/29 01:28:39;;;;;;;94.78;19.95;;;9.10;99.90;;;;;;4957659;28;20057;-86
2022/11/29 01:31:06;;;;;;;95.63;20.98;;;9.10;99.90;;;;;;4974173;28;20114;-88
2022/11/29 01:33:33;;;;;;;215.15;41.97;;;9.10;99.90;;;;;;4974498;28;20054;-88
2022/11/29 01:35:58;;;;;;;142.93;37.72;;;9.10;99.90;;;;;;4956017;28;20399;-89
2022/11/29 01:38:24;;;;;;;172.60;38.70;;;9.10;99.90;;;;;;4956377;28;20042;-89
2022/11/29 01:40:58;;;;;;;142.50;36.53;;;9.10;99.90;;;;;;4955937;28;20043;-86
2022/11/29 01:43:24;;;;;;;118.65;22.88;;;9.10;99.90;;;;;;4973700;28;20043;-87
2022/11/29 01:45:50;;;;;;;142.55;35.40;;;9.10;99.90;;;;;;4973435;28;20044;-87
2022/11/29 01:48:16;;;;;;;189.63;40.08;;;9.10;99.90;;;;;;4956504;28;20049;-88
2022/11/29 01:50:42;;;;;;;235.68;42.78;;;9.10;99.90;;;;;;4945967;29;20051;-87
2022/11/29 01:53:12;;;;;;;107.53;22.67;;;9.10;99.90;;;;;;4954875;29;20138;-87
2022/11/29 01:55:43;;;;;;;152.13;38.50;;;9.10;99.90;;;;;;4954062;28;20050;-87
2022/11/29 01:58:10;;;;;;;93.18;21.58;;;9.10;99.90;;;;;;4956710;28;20055;-87
2022/11/29 02:00:35;;;;;;;151.38;36.50;;;9.00;99.90;;;;;;4956875;28;20049;-88
2022/11/29 02:03:09;;;;;;;168.60;39.13;;;9.10;99.90;;;;;;4940457;28;20395;-88
2022/11/29 02:05:38;;;;;;;224.00;42.97;;;9.10;99.90;;;;;;4940552;28;20039;-88
2022/11/29 02:08:05;;;;;;;272.40;45.47;;;9.10;99.90;;;;;;4956479;28;20092;-87
2022/11/29 02:11:06;;;;;;;168.77;39.28;;;9.10;99.90;;;;;;4972703;28;20170;-88
2022/11/29 02:14:00;;;;;;;193.52;40.85;;;9.10;99.90;;;;;;4954954;29;20100;-88
2022/11/29 02:16:44;;;;;;;185.60;39.25;;;9.00;99.90;;;;;;4939208;28;20058;-88
2022/11/29 02:19:31;;;;;;;97.03;16.60;;;9.00;99.90;;;;;;4971749;28;20053;-88
2022/11/29 02:22:07;;;;;;;87.25;18.40;;;8.90;99.90;;;;;;4951472;29;20412;-88
2022/11/29 02:24:33;;;;;;;156.70;35.83;;;8.90;99.90;;;;;;4948629;28;20081;-88
2022/11/29 02:27:20;;;;;;;211.95;40.05;;;8.90;99.90;;;;;;4959493;28;20074;-88
2022/11/29 02:30:07;;;;;;;206.88;39.00;;;8.90;99.90;;;;;;4953217;29;20240;-88
2022/11/29 02:32:33;;;;;;;159.90;36.05;;;8.90;99.90;;;;;;4976563;28;20117;-88
2022/11/29 02:35:01;;;;;;;159.20;35.40;;;8.90;99.90;;;;;;4959517;28;20499;-87
2022/11/29 02:37:50;;;;;;;222.90;39.45;;;8.90;99.90;;;;;;4961852;28;20051;-87
2022/11/29 02:40:35;;;;;;;118.72;21.60;;;8.90;99.90;;;;;;4962915;28;20566;-88
2022/11/29 02:43:14;;;;;;;89.80;19.35;;;8.80;99.90;;;;;;4941278;29;20043;-87
2022/11/29 02:45:56;;;;;;;174.65;35.80;;;8.70;99.90;;;;;;4944238;28;20046;-88
2022/11/29 02:48:28;;;;;;;107.60;21.83;;;8.80;99.90;;;;;;4975560;28;20397;-88
2022/11/29 02:51:05;;;;;;;83.97;19.00;;;8.70;99.90;;;;;;4959976;28;20054;-87
2022/11/29 02:54:00;;;;;;;196.52;36.97;;;8.70;99.90;;;;;;4959417;28;20046;-87
2022/11/29 02:57:06;;;;;;;194.00;37.35;;;8.70;99.90;;;;;;4958469;28;20133;-87
2022/11/29 02:59:55;;;;;;;170.85;35.80;;;8.70;99.90;;;;;;4900931;29;20067;-88
2022/11/29 03:02:37;;;;;;;135.65;31.88;;;8.70;99.90;;;;;;4916155;29;20421;-88
2022/11/29 03:05:28;;;;;;;63.90;16.85;;;8.70;99.90;;;;;;4916372;29;20590;-88
2022/11/29 03:08:02;;;;;;;50.08;12.23;;;8.60;99.90;;;;;;4916596;29;20044;-86
2022/11/29 03:10:44;;;;;;;133.10;31.58;;;8.50;99.90;;;;;;4917095;29;20055;-88
2022/11/29 03:13:21;;;;;;;116.78;30.38;;;8.60;99.90;;;;;;4916116;29;20067;-88
2022/11/29 03:16:02;;;;;;;64.38;14.52;;;8.50;99.90;;;;;;4917146;29;20048;-88
2022/11/29 03:18:54;;;;;;;55.20;14.02;;;8.50;99.90;;;;;;4900437;29;20052;-88
2022/11/29 03:21:58;;;;;;;72.68;16.45;;;8.40;99.90;;;;;;4882657;29;20543;-88
2022/11/29 03:24:55;;;;;;;90.05;28.75;;;8.40;99.90;;;;;;4882179;29;20376;-88
2022/11/29 03:27:33;;;;;;;65.45;14.93;;;8.40;99.90;;;;;;4899400;29;20056;-88
2022/11/29 03:30:03;;;;;;;52.58;15.35;;;8.40;99.90;;;;;;4901017;29;20117;-87
2022/11/29 03:32:38;;;;;;;111.55;18.75;;;8.40;99.90;;;;;;4899976;29;20595;-88
2022/11/29 03:35:16;;;;;;;169.73;35.28;;;8.40;99.90;;;;;;4932251;28;20681;-88
2022/11/29 03:38:05;;;;;;;223.18;38.83;;;8.40;99.90;;;;;;4959171;28;20182;-89
2022/11/29 03:40:58;;;;;;;97.35;19.85;;;8.50;99.90;;;;;;4958824;28;20074;-88
2022/11/29 03:43:38;;;;;;;84.78;17.02;;;8.40;99.90;;;;;;4973558;28;20051;-87
2022/11/29 03:46:10;;;;;;;75.82;15.23;;;8.30;99.90;;;;;;4942186;28;20047;-88
2022/11/29 03:48:47;;;;;;;143.13;32.60;;;8.30;99.90;;;;;;4959065;28;20035;-88
2022/11/29 03:51:22;;;;;;;136.93;31.75;;;8.30;99.90;;;;;;4959087;28;20050;-88
2022/11/29 03:54:09;;;;;;;111.65;19.00;;;8.30;99.90;;;;;;4958612;28;20057;-88
2022/11/29 03:56:39;;;;;;;52.03;13.07;;;8.20;99.90;;;;;;4976383;28;20035;-87
2022/11/29 03:59:23;;;;;;;52.38;12.25;;;8.20;99.90;;;;;;4975284;28;20042;-87
2022/11/29 04:02:27;;;;;;;57.28;14.20;;;8.10;99.90;;;;;;4958328;28;20404;-88
2022/11/29 04:05:20;;;;;;;59.05;14.73;;;8.10;99.90;;;;;;4975564;28;20526;-88
2022/11/29 04:08:04;;;;;;;84.32;17.48;;;8.10;99.90;;;;;;4958524;28;20106;-88
2022/11/29 04:10:32;;;;;;;59.25;14.93;;;8.10;99.90;;;;;;4958569;28;20042;-87
2022/11/29 04:13:22;;;;;;;141.10;31.80;;;8.10;99.90;;;;;;4957495;28;20039;-86
2022/11/29 04:16:03;;;;;;;176.45;34.58;;;8.10;99.90;;;;;;4975002;28;20045;-87
2022/11/29 04:18:54;;;;;;;78.10;16.50;;;8.10;99.90;;;;;;4958688;28;20153;-86
2022/11/29 04:22:01;;;;;;;75.55;12.85;;;8.10;99.90;;;;;;4973420;28;20395;-86
2022/11/29 04:24:54;;;;;;;75.93;15.77;;;8.00;99.90;;;;;;4938998;29;20160;-86
2022/11/29 04:27:29;;;;;;;133.13;31.83;;;8.00;99.90;;;;;;4951351;28;20059;-87
2022/11/29 04:30:17;;;;;;;75.13;16.70;;;8.10;99.90;;;;;;4955477;28;20133;-87
2022/11/29 04:33:15;;;;;;;72.65;14.85;;;8.00;99.90;;;;;;4974115;28;20039;-87
2022/11/29 04:36:11;;;;;;;121.80;29.58;;;8.00;99.90;;;;;;4957114;28;20042;-87
2022/11/29 04:39:01;;;;;;;104.78;28.75;;;8.10;99.90;;;;;;4927527;29;20110;-87
2022/11/29 04:41:27;;;;;;;120.35;16.05;;;8.10;99.90;;;;;;4953858;28;20039;-87
2022/11/29 04:44:18;;;;;;;96.43;16.75;;;8.00;99.90;;;;;;4956624;28;20065;-88
2022/11/29 04:47:21;;;;;;;111.57;16.42;;;8.00;99.90;;;;;;4956639;28;20050;-87
2022/11/29 04:49:52;;;;;;;248.18;38.50;;;8.00;99.90;;;;;;4957570;28;20047;-87
2022/11/29 04:52:37;;;;;;;;;;;8.10;99.90;;;;;;4942385;28;20146;-88
2022/11/29 04:55:42;;;;;;;179.85;34.92;;;8.00;99.90;;;;;;4975024;28;19918;-88
2022/11/29 04:58:45;;;;;;;99.85;29.20;;;8.10;99.90;;;;;;4944752;28;20105;-87
2022/11/29 05:01:35;;;;;;;68.53;16.02;;;8.10;99.90;;;;;;4957128;28;20419;-88
2022/11/29 05:04:12;;;;;;;148.85;22.15;;;8.00;99.90;;;;;;4941323;28;20041;-87
2022/11/29 05:06:47;;;;;;;144.23;19.95;;;8.00;99.90;;;;;;4958133;28;20407;-87
2022/11/29 05:09:30;;;;;;;120.05;28.45;;;8.00;99.90;;;;;;4974875;28;20085;-88
2022/11/29 05:12:06;;;;;;;303.83;40.10;;;8.00;99.90;;;;;;4974551;28;20438;-86
2022/11/29 05:14:59;;;;;;;386.83;47.65;;;8.00;99.90;;;;;;4957234;28;20101;-87
2022/11/29 05:17:39;;;;;;;249.80;37.33;;;8.00;99.90;;;;;;4956065;28;20094;-88
2022/11/29 05:20:19;;;;;;;229.50;25.15;;;8.00;99.90;;;;;;4971249;28;20130;-87
2022/11/29 05:23:14;;;;;;;140.70;17.38;;;7.90;99.90;;;;;;4956116;28;20510;-87
2022/11/29 05:25:57;;;;;;;199.27;31.20;;;7.90;99.90;;;;;;4974608;28;20061;-88
2022/11/29 05:28:39;;;;;;;149.85;18.33;;;7.90;99.90;;;;;;4974229;28;20101;-87
2022/11/29 05:31:14;;;;;;;94.25;15.98;;;7.90;99.90;;;;;;4956999;28;20051;-87
2022/11/29 05:33:58;;;;;;;207.65;32.13;;;7.80;99.90;;;;;;4974687;28;20357;-88
2022/11/29 05:36:42;;;;;;;226.65;32.85;;;7.90;99.90;;;;;;4961490;28;20053;-88
2022/11/29 05:39:19;;;;;;;89.47;15.80;;;7.90;99.90;;;;;;4940485;28;20046;-86
2022/11/29 05:41:51;;;;;;;151.85;22.42;;;7.80;99.90;;;;;;4971772;28;20046;-86
2022/11/29 05:44:39;;;;;;;91.43;17.40;;;7.80;99.90;;;;;;4938408;29;20055;-87
2022/11/29 05:47:09;;;;;;;274.70;38.40;;;7.80;99.90;;;;;;4954017;28;20047;-87
2022/11/29 05:50:07;;;;;;;124.53;18.17;;;7.90;99.90;;;;;;4953239;28;20074;-87
2022/11/29 05:52:49;;;;;;;149.95;22.55;;;7.80;99.90;;;;;;4957363;28;20053;-88
2022/11/29 05:55:20;;;;;;;144.20;19.88;;;7.80;99.90;;;;;;4957553;28;20073;-88
2022/11/29 05:58:01;;;;;;;169.30;32.03;;;7.80;99.90;;;;;;4957761;28;20078;-87
2022/11/29 06:00:34;;;;;;;85.30;16.70;;;7.90;99.90;;;;;;4964235;28;20126;-88
2022/11/29 06:03:25;;;;;;;84.68;14.82;;;7.90;99.90;;;;;;4951038;28;20038;-88
2022/11/29 06:05:56;;;;;;;205.52;36.03;;;7.90;99.90;;;;;;4951906;29;20046;-87
2022/11/29 06:08:36;;;;;;;101.72;17.88;;;7.90;99.90;;;;;;4961035;28;20051;-87
2022/11/29 06:11:34;;;;;;;95.97;18.10;;;7.90;99.90;;;;;;4938923;29;20039;-87
2022/11/29 06:14:33;;;;;;;205.95;35.88;;;7.90;99.90;;;;;;4955997;29;20055;-86
2022/11/29 06:17:24;;;;;;;166.35;33.83;;;7.90;99.90;;;;;;4857574;29;20058;-87
2022/11/29 06:20:25;;;;;;;161.20;22.10;;;8.00;99.90;;;;;;4875917;29;20053;-88
2022/11/29 06:22:50;;;;;;;98.85;17.67;;;7.90;99.90;;;;;;4878544;29;20430;-88
2022/11/29 06:25:36;;;;;;;99.93;18.52;;;7.90;99.90;;;;;;4895818;29;20052;-86
2022/11/29 06:28:21;;;;;;;230.68;38.25;;;7.90;99.90;;;;;;4896134;29;20140;-88
2022/11/29 06:31:24;;;;;;;377.92;47.20;;;8.00;99.90;;;;;;4894768;29;20045;-86
2022/11/29 06:34:33;;;;;;;425.92;51.13;;;8.00;99.90;;;;;;4883343;29;20057;-86
2022/11/29 06:37:10;;;;;;;265.23;39.85;;;8.00;99.90;;;;;;4892919;29;20053;-86
2022/11/29 06:39:36;;;;;;;85.45;16.70;;;8.00;99.90;;;;;;4861561;29;20074;-87
2022/11/29 06:42:02;;;;;;;86.22;16.10;;;8.00;99.90;;;;;;4866028;29;20042;-88
2022/11/29 06:44:28;;;;;;;230.02;38.40;;;7.90;99.90;;;;;;4882039;29;20057;-87
2022/11/29 06:47:14;;;;;;;79.25;17.80;;;8.00;99.90;;;;;;4900101;29;20104;-86
2022/11/29 06:49:48;;;;;;;216.20;37.47;;;7.90;99.90;;;;;;4900491;29;20036;-86
2022/11/29 06:52:26;;;;;;;185.85;36.63;;;7.90;99.90;;;;;;4901830;28;20069;-86
2022/11/29 06:55:07;;;;;;;201.38;25.60;;;8.00;99.90;;;;;;4960877;28;20041;-87
2022/11/29 06:58:02;;;;;;;74.88;15.52;;;7.90;99.90;;;;;;4984410;28;20051;-87
2022/11/29 07:00:45;;;;;;;92.28;16.77;;;7.80;99.90;;;;;;4960666;28;20527;-87
2022/11/29 07:03:26;;;;;;;157.20;22.80;;;7.80;99.90;;;;;;4953003;29;20055;-87
2022/11/29 07:05:52;;;;;;;161.00;22.42;;;7.80;99.90;;;;;;4940190;28;20046;-87
2022/11/29 07:08:21;;;;;;;198.27;25.30;;;7.80;99.90;;;;;;4942059;29;20047;-88
2022/11/29 07:10:49;;;;;;;111.75;20.80;;;7.80;99.90;;;;;;4947273;28;20078;-88
2022/11/29 07:13:16;;;;;;;146.88;21.60;;;7.80;99.90;;;;;;4957895;28;20053;-87
2022/11/29 07:15:50;;;;;;;250.02;39.33;;;7.80;99.90;;;;;;4958164;28;20057;-87
2022/11/29 07:18:30;;;;;;;341.45;46.65;;;7.90;99.90;;;;;;4971244;28;20107;-90
2022/11/29 07:21:07;;;;;;;261.98;42.10;;;7.90;99.90;;;;;;4943006;28;20051;-88
2022/11/29 07:24:09;;;;;;;96.35;19.15;;;7.90;99.90;;;;;;4976608;28;20055;-89
2022/11/29 07:26:41;;;;;;;;;;;7.80;99.90;;;;;;4943330;28;20069;-89
2022/11/29 07:29:15;;;;;;;138.88;32.63;;;7.70;99.90;;;;;;4959173;28;19976;-88
2022/11/29 07:32:13;;;;;;;117.97;19.90;;;7.80;99.90;;;;;;4959369;28;20051;-88
2022/11/29 07:34:53;;;;;;;142.52;32.60;;;7.80;99.90;;;;;;4976732;28;20055;-88
2022/11/29 07:37:56;;;;;;;105.57;20.42;;;7.70;99.90;;;;;;4939803;29;20047;-88
2022/11/29 07:40:54;;;;;;;60.67;15.90;;;7.80;99.90;;;;;;4948830;28;20054;-89
2022/11/29 07:43:29;;;;;;;81.22;16.15;;;7.70;99.90;;;;;;4975998;28;20133;-87
2022/11/29 07:45:56;;;;;;;65.95;14.10;;;7.70;99.90;;;;;;4942100;28;20043;-86
2022/11/29 07:48:22;;;;;;;221.43;37.50;;;7.70;99.90;;;;;;4972562;28;20392;-86
2022/11/29 07:50:47;;;;;;;85.72;18.17;;;7.80;99.90;;;;;;4958531;28;20051;-86
2022/11/29 07:53:18;;;;;;;135.23;32.80;;;7.70;99.90;;;;;;4975756;28;20034;-88
2022/11/29 07:55:44;;;;;;;61.88;14.77;;;7.80;99.90;;;;;;4976626;28;20077;-87
2022/11/29 07:58:14;;;;;;;70.80;15.95;;;7.70;99.90;;;;;;4959057;28;20054;-88
2022/11/29 08:00:41;;;;;;;48.78;14.93;;;7.70;99.90;;;;;;4959496;28;20058;-87
2022/11/29 08:03:08;;;;;;;61.75;14.25;;;7.70;99.90;;;;;;4958100;28;20121;-87
2022/11/29 08:05:34;;;;;;;76.18;15.35;;;7.70;99.90;;;;;;4957446;28;20039;-88
2022/11/29 08:08:00;;;;;;;108.15;29.58;;;7.70;99.90;;;;;;4956486;28;20051;-88
2022/11/29 08:10:26;;;;;;;150.55;33.60;;;7.80;99.90;;;;;;4958804;28;20094;-88
2022/11/29 08:12:52;;;;;;;86.30;19.45;;;7.80;99.90;;;;;;4941072;28;20643;-82
2022/11/29 08:15:20;;;;;;;64.60;17.35;;;7.80;99.90;;;;;;4940663;28;20050;-82
2022/11/29 08:17:46;;;;;;;153.95;34.70;;;7.80;99.90;;;;;;4972618;28;20057;-82
2022/11/29 08:20:13;;;;;;;153.75;34.22;;;7.90;99.90;;;;;;4972565;28;20480;-82
2022/11/29 08:22:39;;;;;;;103.80;30.67;;;7.90;99.90;;;;;;4974007;28;20130;-82
2022/11/29 08:25:06;;;;;;;71.50;17.05;;;7.80;99.90;;;;;;4974344;28;20137;-82
2022/11/29 08:27:32;;;;;;;141.77;33.78;;;7.90;99.90;;;;;;4957142;28;20495;-81
2022/11/29 08:29:57;;;;;;;61.08;16.15;;;7.90;99.90;;;;;;4956822;28;20056;-81
2022/11/29 08:32:24;;;;;;;64.90;15.95;;;7.80;99.90;;;;;;4956683;28;20395;-82
2022/11/29 08:34:49;;;;;;;90.03;27.13;;;7.80;99.90;;;;;;4961676;28;20039;-82
2022/11/29 08:37:15;;;;;;;46.67;15.05;;;7.90;99.90;;;;;;4937680;29;20244;-82
2022/11/29 08:39:40;;;;;;;51.15;14.90;;;7.80;99.90;;;;;;4937851;29;20043;-82
2022/11/29 08:42:06;;;;;;;69.18;26.35;;;7.80;99.90;;;;;;4937360;29;20047;-82
2022/11/29 08:44:32;;;;;;;52.03;14.98;;;7.90;99.90;;;;;;4937913;29;20051;-82
2022/11/29 08:55:19;;;;;;;53.65;14.82;;;7.90;99.90;;;;;;4956763;28;20451;-82
2022/11/29 08:57:48;;;;;;;66.10;16.02;;;7.90;99.90;;;;;;4973401;28;20395;-82
2022/11/29 09:00:15;;;;;;;97.32;29.73;;;7.90;99.90;;;;;;4956581;28;20409;-82
2022/11/29 09:02:40;;;;;;;86.68;29.23;;;8.00;99.90;;;;;;4955718;28;20066;-83
2022/11/29 09:05:07;;;;;;;104.32;30.52;;;8.00;99.90;;;;;;4939544;28;20085;-80
2022/11/29 09:07:33;;;;;;;54.30;16.45;;;8.00;99.90;;;;;;4972673;28;20043;-80
2022/11/29 09:10:03;;;;;;;44.95;13.40;;;8.00;99.90;;;;;;4955705;28;20125;-81
2022/11/29 09:12:32;;;;;;;55.15;16.50;;;7.90;99.90;;;;;;4956118;28;20121;-81
2022/11/29 09:14:58;;;;;;;40.45;12.38;;;7.90;99.90;;;;;;4953288;28;20035;-80
2022/11/29 09:17:24;;;;;;;39.42;13.32;;;8.00;99.90;;;;;;4954369;28;20031;-81
2022/11/29 09:19:49;;;;;;;68.15;24.67;;;8.00;99.90;;;;;;4938748;28;20124;-81
2022/11/29 09:22:15;;;;;;;66.03;25.45;;;8.10;99.90;;;;;;4952673;28;20047;-82
2022/11/29 09:24:40;;;;;;;58.80;24.75;;;8.10;99.90;;;;;;4947077;29;20043;-80
2022/11/29 09:27:06;;;;;;;39.00;15.32;;;8.10;99.90;;;;;;4948099;28;20050;-81
2022/11/29 09:29:32;;;;;;;39.83;15.32;;;8.10;99.90;;;;;;4971018;28;20097;-81
2022/11/29 09:31:57;;;;;;;32.53;11.77;;;8.10;99.90;;;;;;4955267;28;20122;-81
2022/11/29 09:34:23;;;;;;;46.90;16.15;;;8.10;99.90;;;;;;4954779;28;20105;-81
2022/11/29 09:36:49;;;;;;;61.25;25.40;;;8.00;99.90;;;;;;4955271;28;20049;-81
2022/11/29 09:39:15;;;;;;;40.60;14.15;;;8.20;99.90;;;;;;4955490;28;20078;-81
2022/11/29 09:41:46;;;;;;;52.38;24.65;;;8.20;99.90;;;;;;4972865;28;20037;-86
2022/11/29 09:44:18;;;;;;;40.50;14.55;;;8.20;99.90;;;;;;4957400;28;20046;-85
2022/11/29 09:47:13;;;;;;;39.95;14.15;;;8.20;99.90;;;;;;4963657;28;20039;-85
2022/11/29 09:49:53;;;;;;;34.05;12.73;;;8.20;99.90;;;;;;4970549;28;20171;-82
2022/11/29 09:52:24;;;;;;;51.20;22.33;;;8.20;99.90;;;;;;4956716;28;20073;-87
2022/11/29 09:54:50;;;;;;;;;;;8.30;99.90;;;;;;4959472;28;20054;-87
2022/11/29 09:57:18;;;;;;;32.35;14.20;;;8.30;99.90;;;;;;4959678;28;20395;-87
2022/11/29 09:59:50;;;;;;;35.70;20.02;;;8.20;99.90;;;;;;4965353;28;20031;-88
2022/11/29 10:02:31;;;;;;;29.88;12.02;;;8.30;99.90;;;;;;4991348;28;20058;-88
2022/11/29 10:05:08;;;;;;;31.15;11.45;;;8.30;99.90;;;;;;4980242;28;20038;-88
2022/11/29 10:07:39;;;;;;;41.20;20.33;;;8.20;99.90;;;;;;4980614;28;20035;-89
2022/11/29 10:10:14;;;;;;;29.10;12.50;;;8.20;99.90;;;;;;4980446;28;20114;-88
2022/11/29 10:12:51;;;;;;;30.17;11.10;;;8.20;99.90;;;;;;4980535;28;20031;-87
2022/11/29 10:15:24;;;;;;;39.88;19.33;;;8.20;99.90;;;;;;4980452;28;20087;-88
2022/11/29 10:18:02;;;;;;;41.10;19.73;;;8.30;99.90;;;;;;4979124;28;20031;-88
2022/11/29 10:20:32;;;;;;;28.38;11.43;;;8.30;99.90;;;;;;4996494;28;20031;-86
2022/11/29 10:22:57;;;;;;;39.50;19.60;;;8.30;99.90;;;;;;4992116;28;20109;-88
2022/11/29 10:25:29;;;;;;;37.20;18.98;;;8.40;99.90;;;;;;4980129;28;20043;-89
2022/11/29 10:27:55;;;;;;;29.67;11.35;;;8.40;99.90;;;;;;4980172;28;20048;-88
2022/11/29 10:30:21;;;;;;;37.08;18.85;;;8.40;99.90;;;;;;4963157;28;20046;-88
2022/11/29 10:32:53;;;;;;;25.23;11.18;;;8.50;99.90;;;;;;4979789;28;20047;-87
2022/11/29 10:35:20;;;;;;;24.42;11.60;;;8.50;99.90;;;;;;4979872;28;20035;-88
2022/11/29 10:37:47;;;;;;;35.33;18.77;;;8.50;99.90;;;;;;4963300;28;20046;-88
2022/11/29 10:40:21;;;;;;;37.08;18.27;;;8.60;99.90;;;;;;4990570;28;20452;-88
2022/11/29 10:42:47;;;;;;;35.35;18.20;;;8.60;99.90;;;;;;4963873;28;20047;-88
2022/11/29 10:45:18;;;;;;;35.55;17.88;;;8.60;99.90;;;;;;4966032;28;20107;-89
2022/11/29 10:47:46;;;;;;;37.28;18.98;;;8.60;99.90;;;;;;4979424;28;20399;-89
2022/11/29 10:50:21;;;;;;;31.50;16.95;;;8.60;99.90;;;;;;4961574;28;20041;-89
2022/11/29 10:52:47;;;;;;;34.78;17.77;;;8.60;99.90;;;;;;4978074;28;20043;-87
2022/11/29 10:55:16;;;;;;;30.58;16.73;;;8.70;99.90;;;;;;4978174;28;20101;-88
2022/11/29 10:58:07;;;;;;;32.45;16.35;;;8.70;99.90;;;;;;4959791;28;20350;-90
2022/11/29 11:00:43;;;;;;;22.03;9.50;;;8.70;99.90;;;;;;4954614;28;20039;-83
2022/11/29 11:03:38;;;;;;;26.98;14.85;;;8.70;99.90;;;;;;4973934;28;20031;-83
2022/11/29 11:06:14;;;;;;;27.35;16.15;;;8.70;99.90;;;;;;4952523;28;20055;-83
2022/11/29 11:08:51;;;;;;;26.58;15.15;;;8.70;99.90;;;;;;4958054;28;20041;-82
2022/11/29 11:11:33;;;;;;;19.92;9.13;;;8.70;99.90;;;;;;4957482;28;20051;-84
2022/11/29 11:14:04;;;;;;;20.42;9.25;;;8.60;99.90;;;;;;4976005;28;20109;-84
2022/11/29 11:16:31;;;;;;;26.80;15.07;;;8.60;99.90;;;;;;4975092;28;20090;-83
2022/11/29 11:18:57;;;;;;;28.23;15.15;;;8.60;99.90;;;;;;4976279;28;20081;-83
2022/11/29 11:21:25;;;;;;;28.58;15.13;;;8.60;99.90;;;;;;4958666;28;20043;-84
2022/11/29 11:24:00;;;;;;;27.40;14.85;;;8.70;99.90;;;;;;4958379;28;20089;-82
2022/11/29 11:26:39;;;;;;;25.38;13.70;;;8.70;99.90;;;;;;4949062;29;20461;-81
2022/11/29 11:29:04;;;;;;;22.30;8.77;;;8.80;99.90;;;;;;4932321;29;20066;-81
2022/11/29 11:31:37;;;;;;;26.90;14.00;;;8.70;99.90;;;;;;4934821;29;20393;-81
2022/11/29 11:34:36;;;;;;;22.92;13.32;;;8.80;99.90;;;;;;4935858;29;20052;-83
2022/11/29 11:37:13;;;;;;;22.73;12.93;;;8.80;99.90;;;;;;4903843;29;20087;-84
2022/11/29 11:39:40;;;;;;;26.88;14.05;;;8.90;99.90;;;;;;4935236;29;20047;-82
2022/11/29 11:42:37;;;;;;;22.58;13.70;;;8.90;99.90;;;;;;4936904;29;20143;-82
2022/11/29 11:45:09;;;;;;;20.67;8.02;;;8.90;99.90;;;;;;4933723;29;20541;-82
2022/11/29 11:47:40;;;;;;;21.83;7.85;;;8.90;99.90;;;;;;4934400;29;20048;-81
2022/11/29 11:50:10;;;;;;;;;;;8.90;99.90;;;;;;4930533;29;20043;-81
2022/11/29 11:52:43;;;;;;;24.02;14.07;;;8.90;99.90;;;;;;4934729;29;20371;-82
2022/11/29 11:55:21;;;;;;;25.05;13.52;;;9.00;99.90;;;;;;4932724;29;20051;-82
2022/11/29 11:58:12;;;;;;;22.92;13.50;;;9.00;99.90;;;;;;4932028;29;20122;-83
2022/11/29 12:00:41;;;;;;;;;;;9.00;99.90;;;;;;4926780;29;20063;-84
2022/11/29 12:03:36;;;;;;;25.00;13.40;;;9.00;99.90;;;;;;4934785;29;19925;-82
2022/11/29 12:06:17;;;;;;;21.65;13.13;;;9.10;99.90;;;;;;4934474;29;20130;-82
2022/11/29 12:08:45;;;;;;;26.85;13.93;;;9.10;99.90;;;;;;4936364;29;20434;-82
2022/11/29 12:11:14;;;;;;;19.98;9.10;;;9.10;99.90;;;;;;4934055;29;20047;-82
2022/11/29 12:13:46;;;;;;;19.95;8.55;;;9.10;99.90;;;;;;4934417;29;20060;-82
2022/11/29 12:16:18;;;;;;;20.55;8.63;;;9.10;99.90;;;;;;4933216;29;20051;-85
2022/11/29 12:18:49;;;;;;;25.60;14.10;;;9.10;99.90;;;;;;4935388;29;20369;-84
2022/11/29 12:21:20;;;;;;;25.65;14.02;;;9.20;99.90;;;;;;4936112;29;20422;-83
2022/11/29 12:23:57;;;;;;;25.45;14.48;;;9.30;99.90;;;;;;4935388;29;20075;-85
2022/11/29 12:26:35;;;;;;;28.23;14.77;;;9.30;99.90;;;;;;4943034;28;20065;-85
2022/11/29 12:29:01;;;;;;;26.05;14.32;;;9.40;99.90;;;;;;4957014;28;20078;-86
2022/11/29 12:31:54;;;;;;;27.20;13.80;;;9.40;99.90;;;;;;4958015;28;20525;-84
2022/11/29 12:34:29;;;;;;;27.98;14.52;;;9.50;99.90;;;;;;4958112;28;20051;-83
2022/11/29 12:37:01;;;;;;;28.15;14.80;;;9.50;99.90;;;;;;4957344;28;20043;-83
2022/11/29 12:39:45;;;;;;;29.50;14.30;;;9.60;99.90;;;;;;4957840;28;20051;-83
2022/11/29 12:42:37;;;;;;;30.50;14.88;;;9.60;99.90;;;;;;4957592;28;20474;-83
2022/11/29 12:45:40;;;;;;;29.50;14.43;;;9.60;99.90;;;;;;4974045;28;20401;-83
2022/11/29 12:48:23;;;;;;;27.17;15.70;;;9.70;99.90;;;;;;4952607;28;20046;-84
2022/11/29 12:51:04;;;;;;;27.98;14.70;;;9.70;99.90;;;;;;4973267;28;20039;-84
2022/11/29 12:53:38;;;;;;;23.47;9.13;;;9.70;99.90;;;;;;4957799;28;20097;-85
2022/11/29 12:56:33;;;;;;;21.77;10.05;;;9.60;99.90;;;;;;4956372;28;20051;-84
2022/11/29 12:59:16;;;;;;;27.40;14.65;;;9.70;99.90;;;;;;4946509;28;20058;-84
2022/11/29 13:02:49;;;;;;;26.77;14.57;;;9.70;99.90;;;;;;4973774;28;20122;-83
2022/11/29 13:05:49;;;;;;;29.80;15.35;;;9.70;99.90;;;;;;4946906;28;20043;-83
2022/11/29 13:08:23;;;;;;;28.92;15.80;;;9.70;99.90;;;;;;4936534;29;20039;-84
2022/11/29 13:11:05;;;;;;;30.83;15.98;;;9.70;99.90;;;;;;4951891;29;20111;-84
2022/11/29 13:13:38;;;;;;;;;;;9.70;99.90;;;;;;4937152;29;20067;-84
2022/11/29 13:16:09;;;;;;;36.67;16.30;;;9.60;99.90;;;;;;4936277;29;19929;-84
2022/11/29 13:18:42;;;;;;;29.17;15.75;;;9.70;99.90;;;;;;4951067;29;20262;-84
2022/11/29 13:21:14;;;;;;;32.45;17.42;;;9.70;99.90;;;;;;4919455;29;20416;-84
2022/11/29 13:24:03;;;;;;;27.00;17.20;;;9.70;99.90;;;;;;4952662;29;20051;-83
2022/11/29 13:26:29;;;;;;;27.77;15.70;;;9.80;99.90;;;;;;4935775;29;20052;-84
2022/11/29 13:28:56;;;;;;;31.42;17.45;;;9.70;99.90;;;;;;4951223;28;20086;-83